createdAt,value
2022-09-28T00:02:25.645Z,2.15
2022-09-28T00:04:56.498Z,2.13
2022-09-28T00:07:25.617Z,2.00
2022-09-28T00:09:54.702Z,2.00
2022-09-28T00:12:24.286Z,2.13
2022-09-28T00:14:54.031Z,2.00
2022-09-28T00:17:26.185Z,2.20
2022-09-28T00:19:58.400Z,2.40
2022-09-28T00:22:27.503Z,1.92
2022-09-28T00:24:56.784Z,2.30
2022-09-28T00:27:25.977Z,2.42
2022-09-28T00:29:55.924Z,2.38
2022-09-28T00:34:55.997Z,2.17
2022-09-28T00:37:25.071Z,2.50
2022-09-28T00:39:54.989Z,2.53
2022-09-28T00:42:26.179Z,2.60
2022-09-28T00:44:56.116Z,2.30
2022-09-28T00:47:42.986Z,2.80
2022-09-28T00:50:23.657Z,2.85
2022-09-28T00:52:57.700Z,2.70
2022-09-28T00:55:35.716Z,2.85
2022-09-28T00:58:08.718Z,3.30
2022-09-28T01:00:40.626Z,2.72
2022-09-28T01:03:10.244Z,2.70
2022-09-28T01:05:41.897Z,2.80
2022-09-28T01:08:13.371Z,2.72
2022-09-28T01:10:44.068Z,2.80
2022-09-28T01:13:15.790Z,2.60
2022-09-28T01:15:54.800Z,2.47
2022-09-28T01:21:10.680Z,2.78
2022-09-28T01:24:01.078Z,2.33
2022-09-28T01:26:59.982Z,2.30
2022-09-28T01:29:49.300Z,2.20
2022-09-28T01:32:30.382Z,1.80
2022-09-28T01:35:06.609Z,2.30
2022-09-28T01:37:42.680Z,2.33
2022-09-28T01:40:13.382Z,2.15
2022-09-28T01:42:46.011Z,1.88
2022-09-28T01:45:23.171Z,2.20
2022-09-28T01:47:58.299Z,2.00
2022-09-28T01:50:31.454Z,1.85
2022-09-28T01:53:08.506Z,2.05
2022-09-28T01:55:44.133Z,2.20
2022-09-28T01:58:19.816Z,2.10
2022-09-28T02:00:57.147Z,2.20
2022-09-28T02:03:33.051Z,2.15
2022-09-28T02:06:10.391Z,2.20
2022-09-28T02:08:45.457Z,2.53
2022-09-28T02:11:17.399Z,2.83
2022-09-28T02:13:51.500Z,2.72
2022-09-28T02:16:27.436Z,2.40
2022-09-28T02:18:57.100Z,2.50
2022-09-28T02:21:32.859Z,2.67
2022-09-28T02:24:08.000Z,3.00
2022-09-28T02:26:42.728Z,2.72
2022-09-28T02:29:12.834Z,2.80
2022-09-28T02:31:43.429Z,3.17
2022-09-28T02:34:12.716Z,2.95
2022-09-28T02:36:42.090Z,2.90
2022-09-28T02:39:16.783Z,2.88
2022-09-28T02:41:59.991Z,2.95
2022-09-28T02:44:42.222Z,3.25
2022-09-28T02:47:26.157Z,2.90
2022-09-28T02:50:04.351Z,3.53
2022-09-28T02:52:59.684Z,3.72
2022-09-28T02:55:44.411Z,2.72
2022-09-28T02:58:27.723Z,3.53
2022-09-28T03:01:04.402Z,3.22
2022-09-28T03:03:43.613Z,3.47
2022-09-28T03:06:22.165Z,3.53
2022-09-28T03:11:34.498Z,4.35
2022-09-28T03:14:06.271Z,3.47
2022-09-28T03:19:18.313Z,3.88
2022-09-28T03:21:47.473Z,4.10
2022-09-28T03:24:17.535Z,4.07
2022-09-28T03:26:46.630Z,4.30
2022-09-28T03:29:16.358Z,4.47
2022-09-28T03:31:49.187Z,4.50
2022-09-28T03:34:19.782Z,4.22
2022-09-28T03:36:49.335Z,4.15
2022-09-28T03:39:18.618Z,4.53
2022-09-28T03:41:47.828Z,4.60
2022-09-28T03:44:18.768Z,4.75
2022-09-28T03:46:48.692Z,5.00
2022-09-28T03:49:19.449Z,5.20
2022-09-28T03:51:49.505Z,5.35
2022-09-28T03:54:19.088Z,5.30
2022-09-28T03:56:48.245Z,5.32
2022-09-28T03:59:19.356Z,5.03
2022-09-28T04:01:51.476Z,5.88
2022-09-28T04:04:23.683Z,5.47
2022-09-28T04:06:52.826Z,5.75
2022-09-28T04:09:22.333Z,5.28
2022-09-28T04:12:03.277Z,5.55
2022-09-28T04:14:33.845Z,6.45
2022-09-28T04:17:03.305Z,5.43
2022-09-28T04:19:35.388Z,7.50
2022-09-28T04:22:23.375Z,7.00
2022-09-28T04:24:52.520Z,7.60
2022-09-28T04:27:39.385Z,9.57
2022-09-28T04:30:10.036Z,10.77
2022-09-28T04:32:39.670Z,13.40
2022-09-28T04:35:12.996Z,15.60
2022-09-28T04:37:42.548Z,16.25
2022-09-28T04:40:12.142Z,15.47
2022-09-28T04:42:41.336Z,11.68
2022-09-28T04:45:11.890Z,11.00
2022-09-28T04:47:45.133Z,10.07
2022-09-28T04:50:41.993Z,9.15
2022-09-28T04:53:19.828Z,8.27
2022-09-28T04:55:58.454Z,8.35
2022-09-28T04:58:27.861Z,8.32
2022-09-28T05:01:02.305Z,7.22
2022-09-28T05:03:50.166Z,8.27
2022-09-28T05:06:30.950Z,8.13
2022-09-28T05:09:07.361Z,7.47
2022-09-28T05:11:36.667Z,7.60
2022-09-28T05:14:09.364Z,8.70
2022-09-28T05:16:38.705Z,7.63
2022-09-28T05:19:26.524Z,8.25
2022-09-28T05:22:04.415Z,7.32
2022-09-28T05:24:38.640Z,6.95
2022-09-28T05:27:08.061Z,6.95
2022-09-28T05:29:37.281Z,6.97
2022-09-28T05:32:24.904Z,6.38
2022-09-28T05:35:08.181Z,6.95
2022-09-28T05:37:45.194Z,6.35
2022-09-28T05:40:15.030Z,6.65
2022-09-28T05:47:47.262Z,6.03
2022-09-28T05:50:20.291Z,5.82
2022-09-28T05:52:59.809Z,5.70
2022-09-28T05:55:29.829Z,6.00
2022-09-28T05:58:03.628Z,5.85
2022-09-28T06:00:34.310Z,6.40
2022-09-28T06:03:09.211Z,5.10
2022-09-28T06:05:39.977Z,5.30
2022-09-28T06:08:11.675Z,6.20
2022-09-28T06:10:45.424Z,5.47
2022-09-28T06:13:15.788Z,5.00
2022-09-28T06:15:46.349Z,5.13
2022-09-28T06:18:16.610Z,4.82
2022-09-28T06:21:16.477Z,5.10
2022-09-28T06:23:49.708Z,4.90
2022-09-28T06:26:20.577Z,5.28
2022-09-28T06:28:49.896Z,5.07
2022-09-28T06:31:23.720Z,5.22
2022-09-28T06:33:53.817Z,4.82
2022-09-28T06:36:23.356Z,4.50
2022-09-28T06:38:53.958Z,4.43
2022-09-28T06:41:23.310Z,4.85
2022-09-28T06:43:52.456Z,4.68
2022-09-28T06:46:40.242Z,4.57
2022-09-28T06:49:32.449Z,4.72
2022-09-28T06:52:20.205Z,4.80
2022-09-28T06:55:26.425Z,4.60
2022-09-28T06:58:00.184Z,4.65
2022-09-28T07:00:31.191Z,4.53
2022-09-28T07:03:00.646Z,3.75
2022-09-28T07:05:44.235Z,4.50
2022-09-28T07:08:39.931Z,4.35
2022-09-28T07:11:48.820Z,4.22
2022-09-28T07:14:45.846Z,4.57
2022-09-28T07:17:16.536Z,4.35
2022-09-28T07:19:46.102Z,4.63
2022-09-28T07:22:18.880Z,4.30
2022-09-28T07:24:50.765Z,4.25
2022-09-28T07:27:45.812Z,4.47
2022-09-28T07:30:54.412Z,4.78
2022-09-28T07:34:02.731Z,4.57
2022-09-28T07:36:39.219Z,4.80
2022-09-28T07:39:09.103Z,4.68
2022-09-28T07:44:12.447Z,4.97
2022-09-28T07:46:44.622Z,4.97
2022-09-28T07:49:23.999Z,5.40
2022-09-28T07:52:20.594Z,5.10
2022-09-28T07:55:09.276Z,4.65
2022-09-28T07:58:04.765Z,5.60
2022-09-28T08:01:01.053Z,4.55
2022-09-28T08:03:31.743Z,5.28
2022-09-28T08:06:01.654Z,5.13
2022-09-28T08:08:32.273Z,4.97
2022-09-28T08:11:02.749Z,4.40
2022-09-28T08:13:49.369Z,4.85
2022-09-28T08:16:48.537Z,5.07
2022-09-28T08:19:56.006Z,5.35
2022-09-28T08:22:25.160Z,4.88
2022-09-28T08:24:58.087Z,5.00
2022-09-28T08:27:27.177Z,5.68
2022-09-28T08:29:56.423Z,6.72
2022-09-28T08:33:02.278Z,6.45
2022-09-28T08:35:46.870Z,6.10
2022-09-28T08:38:48.104Z,6.50
2022-09-28T08:41:50.923Z,6.28
2022-09-28T08:44:45.018Z,6.55
2022-09-28T08:47:47.893Z,6.57
2022-09-28T08:50:33.282Z,6.38
2022-09-28T08:53:19.414Z,6.05
2022-09-28T08:56:05.052Z,6.35
2022-09-28T08:58:38.946Z,6.07
2022-09-28T09:01:14.161Z,6.28
2022-09-28T09:03:45.724Z,6.70
2022-09-28T09:06:56.063Z,5.63
2022-09-28T09:09:43.720Z,6.07
2022-09-28T09:12:20.100Z,6.05
2022-09-28T09:15:08.648Z,6.38
2022-09-28T09:17:49.266Z,6.75
2022-09-28T09:20:51.902Z,6.53
2022-09-28T09:23:39.262Z,7.00
2022-09-28T09:26:22.413Z,6.40
2022-09-28T09:29:22.985Z,6.78
2022-09-28T09:32:43.510Z,6.55
2022-09-28T09:35:31.487Z,4.88
2022-09-28T09:38:41.371Z,4.65
2022-09-28T09:41:45.556Z,4.72
2022-09-28T09:44:55.375Z,4.00
2022-09-28T09:47:45.333Z,4.00
2022-09-28T09:50:29.954Z,4.32
2022-09-28T09:53:05.624Z,4.53
2022-09-28T09:55:43.421Z,4.82
2022-09-28T09:58:53.629Z,4.75
2022-09-28T10:01:35.845Z,4.60
2022-09-28T10:04:27.298Z,5.35
2022-09-28T10:07:04.788Z,4.65
2022-09-28T10:09:40.737Z,4.40
2022-09-28T10:12:37.329Z,4.25
2022-09-28T10:15:08.780Z,4.20
2022-09-28T10:17:50.444Z,4.38
2022-09-28T10:20:43.518Z,5.10
2022-09-28T10:23:25.897Z,5.30
2022-09-28T10:26:00.687Z,5.22
2022-09-28T10:28:51.876Z,5.40
2022-09-28T10:31:42.573Z,5.65
2022-09-28T10:34:31.517Z,5.63
2022-09-28T10:37:11.615Z,5.20
2022-09-28T10:40:01.103Z,4.97
2022-09-28T10:42:36.231Z,4.22
2022-09-28T10:45:27.418Z,4.65
2022-09-28T10:48:03.611Z,4.25
2022-09-28T10:50:35.633Z,4.00
2022-09-28T10:53:19.239Z,4.47
2022-09-28T10:56:22.839Z,4.20
2022-09-28T11:01:48.229Z,3.75
2022-09-28T11:04:29.030Z,3.90
2022-09-28T11:07:01.113Z,3.90
2022-09-28T11:09:33.231Z,4.05
2022-09-28T11:12:15.387Z,3.92
2022-09-28T11:14:48.831Z,3.35
2022-09-28T11:17:33.848Z,3.60
2022-09-28T11:20:26.800Z,3.63
2022-09-28T11:22:59.020Z,3.50
2022-09-28T11:25:33.459Z,3.92
2022-09-28T11:28:23.767Z,3.20
2022-09-28T11:30:56.142Z,3.47
2022-09-28T11:33:46.947Z,2.70
2022-09-28T11:36:54.991Z,3.00
2022-09-28T11:40:11.699Z,2.90
2022-09-28T11:42:58.621Z,2.60
2022-09-28T11:45:42.404Z,2.30
2022-09-28T11:48:19.047Z,2.03
2022-09-28T11:50:55.252Z,2.22
2022-09-28T11:53:30.386Z,2.10
2022-09-28T11:56:14.707Z,1.90
2022-09-28T11:58:48.184Z,1.90
2022-09-28T12:01:26.317Z,1.60
2022-09-28T12:04:35.188Z,1.60
2022-09-28T12:07:17.577Z,1.50
2022-09-28T12:09:58.468Z,1.25
2022-09-28T12:12:35.636Z,1.40
2022-09-28T12:15:19.126Z,1.35
2022-09-28T12:20:49.133Z,1.30
2022-09-28T12:23:39.644Z,1.60
2022-09-28T12:26:23.779Z,1.48
2022-09-28T12:28:59.085Z,1.52
2022-09-28T12:31:36.316Z,1.70
2022-09-28T12:34:06.326Z,1.60
2022-09-28T12:37:08.014Z,1.23
2022-09-28T12:40:02.175Z,1.20
2022-09-28T12:42:53.007Z,1.30
2022-09-28T12:46:09.895Z,1.30
2022-09-28T12:50:07.274Z,1.10
2022-09-28T12:52:18.986Z,1.40
2022-09-28T12:55:24.925Z,1.45
2022-09-28T12:58:04.374Z,1.67
2022-09-28T13:00:42.331Z,1.27
2022-09-28T13:03:41.202Z,1.50
2022-09-28T13:06:37.933Z,1.25
2022-09-28T13:09:23.888Z,1.40
2022-09-28T13:12:31.820Z,1.50
2022-09-28T13:15:34.353Z,1.48
2022-09-28T13:18:12.137Z,1.30
2022-09-28T13:20:53.265Z,1.42
2022-09-28T13:23:25.390Z,1.23
2022-09-28T13:26:10.428Z,1.52
2022-09-28T13:28:43.693Z,1.50
2022-09-28T13:31:19.086Z,1.17
2022-09-28T13:33:50.397Z,1.20
2022-09-28T13:36:42.497Z,1.30
2022-09-28T13:39:37.544Z,1.38
2022-09-28T13:42:09.861Z,1.38
2022-09-28T13:45:03.131Z,1.48
2022-09-28T13:47:57.623Z,1.38
2022-09-28T13:50:39.084Z,1.63
2022-09-28T13:53:20.246Z,1.60
2022-09-28T13:55:58.483Z,1.50
2022-09-28T13:58:32.839Z,1.88
2022-09-28T14:01:08.657Z,1.92
2022-09-28T14:03:55.786Z,1.48
2022-09-28T14:06:27.643Z,1.35
2022-09-28T14:09:25.078Z,1.60
2022-09-28T14:12:00.014Z,1.80
2022-09-28T14:14:51.078Z,1.75
2022-09-28T14:18:03.136Z,2.30
2022-09-28T14:20:36.162Z,2.08
2022-09-28T14:23:57.584Z,2.92
2022-09-28T14:26:54.434Z,2.00
2022-09-28T14:29:29.376Z,2.05
2022-09-28T14:32:04.742Z,1.60
2022-09-28T14:34:37.806Z,1.67
2022-09-28T14:37:40.257Z,2.15
2022-09-28T14:40:37.519Z,1.52
2022-09-28T14:43:36.253Z,1.50
2022-09-28T14:46:37.462Z,1.42
2022-09-28T14:52:46.649Z,1.52
2022-09-28T14:55:27.809Z,1.65
2022-09-28T15:59:27.283Z,3.40
2022-09-28T16:06:16.474Z,4.47
2022-09-28T16:08:48.889Z,4.28
2022-09-28T16:11:23.931Z,4.50
2022-09-28T16:14:01.794Z,4.88
2022-09-28T16:16:36.462Z,3.95
2022-09-28T16:19:07.955Z,3.75
2022-09-28T16:21:46.955Z,3.85
2022-09-28T16:24:23.625Z,3.67
2022-09-28T16:26:59.220Z,3.92
2022-09-28T16:29:39.154Z,4.05
2022-09-28T16:32:41.788Z,3.70
2022-09-28T16:35:21.131Z,4.00
2022-09-28T16:37:57.849Z,3.80
2022-09-28T16:40:28.045Z,3.92
2022-09-28T16:43:03.161Z,3.72
2022-09-28T16:45:35.187Z,4.47
2022-09-28T16:48:06.475Z,4.30
2022-09-28T16:50:35.970Z,4.47
2022-09-28T16:53:31.541Z,3.90
2022-09-28T16:56:01.981Z,4.07
2022-09-28T16:58:32.041Z,4.68
2022-09-28T17:01:02.015Z,5.38
2022-09-28T17:03:32.840Z,4.85
2022-09-28T17:06:03.730Z,6.38
2022-09-28T17:08:33.766Z,6.93
2022-09-28T17:11:24.015Z,6.90
2022-09-28T17:13:56.711Z,7.80
2022-09-28T17:19:24.404Z,6.88
2022-09-28T17:21:54.264Z,5.95
2022-09-28T17:24:23.725Z,7.50
2022-09-28T17:26:54.807Z,9.48
2022-09-28T17:29:24.236Z,12.20
2022-09-28T17:31:54.440Z,14.02
2022-09-28T17:36:54.790Z,21.83
2022-09-28T17:39:25.128Z,26.02
2022-09-28T17:41:54.544Z,32.40
2022-09-28T17:44:23.749Z,38.40
2022-09-28T17:46:53.944Z,48.03
2022-09-28T17:49:24.959Z,39.80
2022-09-28T17:51:54.243Z,32.10
2022-09-28T17:54:23.510Z,19.50
2022-09-28T17:56:53.242Z,14.32
2022-09-28T17:59:22.420Z,10.98
2022-09-28T18:01:51.685Z,10.20
2022-09-28T18:04:47.207Z,11.07
2022-09-28T18:07:11.933Z,13.13
2022-09-28T18:09:41.251Z,13.88
2022-09-28T18:12:10.368Z,13.85
2022-09-28T18:14:40.109Z,12.40
2022-09-28T18:17:09.457Z,11.50
2022-09-28T18:19:38.557Z,11.43
2022-09-28T18:22:07.643Z,11.98
2022-09-28T18:24:38.319Z,17.03
2022-09-28T18:27:07.425Z,17.92
2022-09-28T18:29:36.573Z,16.35
2022-09-28T18:32:06.211Z,16.67
2022-09-28T18:34:38.042Z,16.77
2022-09-28T18:37:07.583Z,16.38
2022-09-28T18:39:38.630Z,12.75
2022-09-28T18:42:08.133Z,13.70
2022-09-28T18:44:37.747Z,13.07
2022-09-28T18:47:07.182Z,12.27
2022-09-28T18:49:37.992Z,12.55
2022-09-28T18:52:08.685Z,12.05
2022-09-28T18:54:40.504Z,12.47
2022-09-28T18:57:10.164Z,12.68
2022-09-28T18:59:39.640Z,11.82
2022-09-28T19:02:11.578Z,13.40
2022-09-28T19:04:41.481Z,13.43
2022-09-28T19:07:10.832Z,13.25
2022-09-28T19:09:44.035Z,15.90
2022-09-28T19:12:14.018Z,13.50
2022-09-28T19:14:43.299Z,15.82
2022-09-28T19:17:12.947Z,14.77
2022-09-28T19:19:42.731Z,16.08
2022-09-28T19:22:12.978Z,16.60
2022-09-28T19:24:43.736Z,15.77
2022-09-28T19:27:13.074Z,15.85
2022-09-28T19:29:42.274Z,15.30
2022-09-28T19:32:12.659Z,16.00
2022-09-28T19:34:42.124Z,17.02
2022-09-28T19:37:11.316Z,15.05
2022-09-28T19:39:42.022Z,20.67
2022-09-28T19:42:11.457Z,17.92
2022-09-28T19:44:41.665Z,19.13
2022-09-28T19:47:13.023Z,15.30
2022-09-28T19:49:43.089Z,15.75
2022-09-28T19:52:16.925Z,15.38
2022-09-28T19:54:56.681Z,15.68
2022-09-28T19:57:27.845Z,15.50
2022-09-28T20:00:05.683Z,16.65
2022-09-28T20:02:36.125Z,17.98
2022-09-28T20:05:05.702Z,19.38
2022-09-28T20:07:36.167Z,18.92
2022-09-28T20:10:07.871Z,18.88
2022-09-28T20:12:37.153Z,17.80
2022-09-28T20:15:10.645Z,18.85
2022-09-28T20:17:39.859Z,16.25
2022-09-28T20:20:09.979Z,14.30
2022-09-28T20:22:40.140Z,13.40
2022-09-28T20:25:11.126Z,12.80
2022-09-28T20:27:40.554Z,12.73
2022-09-28T20:30:11.911Z,13.55
2022-09-28T20:32:41.720Z,13.35
2022-09-28T20:35:11.367Z,13.93
2022-09-28T20:37:40.508Z,15.18
2022-09-28T20:40:12.065Z,13.93
2022-09-28T20:42:42.483Z,14.15
2022-09-28T20:45:12.178Z,12.85
2022-09-28T20:47:41.575Z,12.88
2022-09-28T20:50:11.479Z,13.00
2022-09-28T20:52:40.893Z,12.60
2022-09-28T20:55:11.948Z,12.52
2022-09-28T20:57:41.344Z,13.32
2022-09-28T21:00:12.016Z,14.45
2022-09-28T21:02:41.442Z,15.35
2022-09-28T21:05:11.110Z,15.88
2022-09-28T21:07:40.374Z,15.23
2022-09-28T21:10:11.907Z,15.25
2022-09-28T21:12:41.978Z,14.27
2022-09-28T21:15:12.058Z,18.38
2022-09-28T21:17:41.337Z,13.13
2022-09-28T21:20:11.290Z,14.18
2022-09-28T21:22:40.777Z,14.32
2022-09-28T21:25:11.821Z,13.52
2022-09-28T21:27:41.526Z,14.00
2022-09-28T21:30:11.757Z,11.68
2022-09-28T21:32:41.184Z,11.27
2022-09-28T21:35:11.179Z,11.87
2022-09-28T21:37:40.628Z,12.70
2022-09-28T21:40:11.972Z,13.17
2022-09-28T21:42:41.530Z,10.88
2022-09-28T21:45:11.266Z,11.40
2022-09-28T21:47:43.573Z,11.57
2022-09-28T21:50:15.217Z,11.85
2022-09-28T21:52:44.366Z,13.68
2022-09-28T21:55:15.215Z,12.73
2022-09-28T21:57:46.372Z,12.20
2022-09-28T22:00:16.431Z,11.27
2022-09-28T22:02:46.133Z,12.45
2022-09-28T22:05:15.856Z,13.13
2022-09-28T22:07:45.215Z,13.48
2022-09-28T22:10:16.607Z,11.68
2022-09-28T22:12:45.930Z,11.00
2022-09-28T22:15:15.433Z,11.25
2022-09-28T22:17:44.719Z,10.32
2022-09-28T22:20:13.885Z,10.35
2022-09-28T22:22:43.282Z,11.97
2022-09-28T22:25:12.513Z,12.25
2022-09-28T22:27:43.252Z,13.25
2022-09-28T22:30:13.662Z,15.65
2022-09-28T22:35:11.919Z,16.08
2022-09-28T22:37:41.319Z,15.65
2022-09-28T22:40:12.706Z,14.45
2022-09-28T22:42:43.478Z,14.50
2022-09-28T22:45:13.006Z,14.98
2022-09-28T22:47:42.704Z,14.68
2022-09-28T22:50:12.083Z,15.45
2022-09-28T22:52:41.515Z,14.80
2022-09-28T22:55:12.828Z,14.48
2022-09-28T22:57:43.597Z,14.65
2022-09-28T23:00:13.649Z,14.52
2022-09-28T23:02:42.846Z,12.27
2022-09-28T23:05:12.227Z,11.85
2022-09-28T23:07:41.411Z,10.27
2022-09-28T23:10:11.222Z,11.00
2022-09-28T23:12:42.326Z,11.65
2022-09-28T23:15:13.693Z,10.52
2022-09-28T23:17:43.022Z,9.60
2022-09-28T23:20:12.227Z,9.27
2022-09-28T23:22:41.396Z,9.18
2022-09-28T23:25:10.963Z,9.87
2022-09-28T23:27:40.263Z,8.97
2022-09-28T23:30:12.167Z,9.13
2022-09-28T23:32:41.605Z,8.48
2022-09-28T23:35:11.077Z,9.00
2022-09-28T23:37:40.323Z,9.00
2022-09-28T23:40:10.271Z,8.40
2022-09-28T23:42:39.393Z,8.45
2022-09-28T23:45:11.160Z,8.30
2022-09-28T23:47:40.548Z,8.93
2022-09-28T23:50:10.542Z,9.00
2022-09-28T23:52:39.683Z,8.75
2022-09-28T23:55:09.825Z,9.20
2022-09-28T23:57:43.877Z,9.20
